Kezdőlap
METAR-TAF:

METAR-TAF

Repülőterek :

Grinnell, Iowa, Amerikai Egyesült Államok

földrajzi szélesség: 41-42-35N, földrajzi hosszúság: 092-44-09W, magasság: 307 m

Jelenlegi meteorológiai megfigyelések

A jelentés 16 perccel ezelõtt készült, 12:55 UTC
Nyugat-délnyugati szél 5 kt
Hőmérséklet 26°C
Páratartalom 79%
Légköri nyomás 1018 hPa
Látótávolság: 16.1 km
Derült ég

METAR: KGGI 281255Z AUTO 25005KT 10SM CLR 26/22 A3005 RMK AO2 T02550219

Idő: 08:11 (13:11 UTC)


TAF: hiányzik

Meteorológiai megfigyelések és előrejelzések több, mint 4000 repülőtéren (METAR és TAF jelentéseket).

A térképen piros és sárga pontok jelzik az elérhető meteorológiai állomásokat.

Mozgassa az egeret a pont fölött, hogy megjelenjen az állomás neve.

Azután kattintson az időjárási megfigyelések és előrejelzések megtekintéséhez.

A térkép megváltoztatása: kattintson a fekete keresztel jelölt zöld gombra ráközelítéshez, a vonallal jelölt zöld gombra távolításhoz, vagy a zöld nyilakra a szomszédos térképek eléréséhez.


METAR-TAF: